Time;durP1;ratioP1;P1;durP2;ratioP2;P2;SDS_P1;SDS_P2;PMS_P1;PMS_P2;Temp;Humidity;BMP_temperature;BMP_pressure;BME280_temperature;BME280_humidity;BME280_pressure;Samples;Min_cycle;Max_cycle;Signal;HPM_P1;HPM_P2
2021/10/09 00:01:45;;;;;;;24.40;14.20;;;8.30;99.90;;;;;;5068274;28;20143;-67
2021/10/09 00:04:12;;;;;;;24.05;13.25;;;8.30;99.90;;;;;;5069057;28;20047;-68
2021/10/09 00:06:40;;;;;;;22.25;13.38;;;8.30;99.90;;;;;;5068870;28;20055;-67
2021/10/09 00:09:09;;;;;;;25.42;12.80;;;8.20;99.90;;;;;;5068315;28;20048;-67
2021/10/09 00:11:38;;;;;;;24.25;13.80;;;8.20;99.90;;;;;;5069322;28;20053;-67
2021/10/09 00:14:08;;;;;;;23.52;12.95;;;8.20;99.90;;;;;;5069265;28;20391;-67
2021/10/09 00:16:36;;;;;;;21.88;14.02;;;8.10;99.90;;;;;;5070973;28;20096;-68
2021/10/09 00:19:04;;;;;;;21.75;14.13;;;8.10;99.90;;;;;;5051896;28;20048;-67
2021/10/09 00:21:31;;;;;;;21.45;13.15;;;8.10;99.90;;;;;;5068661;28;20040;-67
2021/10/09 00:24:00;;;;;;;21.48;13.45;;;8.10;99.90;;;;;;5069673;28;20064;-67
2021/10/09 00:26:28;;;;;;;22.83;13.38;;;8.00;99.90;;;;;;5070063;28;20131;-67
2021/10/09 00:28:55;;;;;;;22.75;14.27;;;8.00;99.90;;;;;;5068835;28;20137;-67
2021/10/09 00:31:23;;;;;;;20.92;14.13;;;8.00;99.90;;;;;;5051356;28;20049;-67
2021/10/09 00:33:51;;;;;;;26.95;15.10;;;8.00;99.90;;;;;;5070088;28;20036;-68
2021/10/09 00:36:19;;;;;;;22.85;14.32;;;8.00;99.90;;;;;;5068104;28;20045;-67
2021/10/09 00:38:46;;;;;;;25.05;15.02;;;7.90;99.90;;;;;;5068712;28;20040;-67
2021/10/09 00:41:13;;;;;;;23.88;13.90;;;7.90;99.90;;;;;;5069354;28;20052;-67
2021/10/09 00:43:40;;;;;;;23.42;14.70;;;7.90;99.90;;;;;;5068078;28;20049;-67
2021/10/09 00:46:08;;;;;;;27.33;14.98;;;8.00;99.90;;;;;;5068661;28;20045;-67
2021/10/09 00:48:36;;;;;;;24.80;14.40;;;7.90;99.90;;;;;;5069150;28;20055;-67
2021/10/09 00:51:04;;;;;;;27.75;15.63;;;7.90;99.90;;;;;;5070195;28;20055;-67
2021/10/09 00:53:33;;;;;;;25.92;14.32;;;7.90;99.90;;;;;;5039958;28;20406;-67
2021/10/09 00:56:01;;;;;;;21.02;13.65;;;7.90;99.90;;;;;;5080519;28;20394;-67
2021/10/09 00:58:30;;;;;;;23.73;14.52;;;7.90;99.90;;;;;;5072903;28;20044;-67
2021/10/09 01:00:57;;;;;;;21.73;13.85;;;7.90;99.90;;;;;;5084117;28;20109;-67
2021/10/09 01:03:25;;;;;;;26.63;14.98;;;7.90;99.90;;;;;;5083443;28;20142;-67
2021/10/09 01:05:53;;;;;;;27.73;14.50;;;7.90;99.90;;;;;;5080418;28;20045;-67
2021/10/09 01:08:20;;;;;;;29.42;14.45;;;7.90;99.90;;;;;;5081059;28;20048;-67
2021/10/09 01:10:48;;;;;;;24.58;15.30;;;7.90;99.90;;;;;;5068006;28;20495;-67
2021/10/09 01:13:16;;;;;;;23.88;14.68;;;7.80;99.90;;;;;;5082790;28;20055;-67
2021/10/09 01:15:44;;;;;;;25.95;14.45;;;7.90;99.90;;;;;;5084996;28;20081;-67
2021/10/09 01:18:17;;;;;;;29.00;15.25;;;7.90;99.90;;;;;;5083012;28;20032;-67
2021/10/09 01:20:54;;;;;;;24.60;15.38;;;7.80;99.90;;;;;;5085042;28;20449;-67
2021/10/09 01:23:26;;;;;;;30.23;15.32;;;7.80;99.90;;;;;;5049471;28;20049;-67
2021/10/09 01:25:56;;;;;;;25.45;14.60;;;7.80;99.90;;;;;;5086645;28;20044;-67
2021/10/09 01:28:24;;;;;;;24.38;14.35;;;7.70;99.90;;;;;;5086569;28;20422;-67
2021/10/09 01:30:54;;;;;;;26.08;14.13;;;7.70;99.90;;;;;;5088841;28;20498;-67
2021/10/09 01:33:23;;;;;;;;;;;7.70;99.90;;;;;;5064716;28;20091;-67
2021/10/09 01:35:54;;;;;;;23.55;14.30;;;7.60;99.90;;;;;;5076910;28;20259;-67
2021/10/09 01:38:29;;;;;;;25.10;15.25;;;7.60;99.90;;;;;;5083930;28;20040;-67
2021/10/09 01:40:58;;;;;;;27.38;14.95;;;7.60;99.90;;;;;;5104950;28;20047;-67
2021/10/09 01:43:26;;;;;;;25.95;15.15;;;7.60;99.90;;;;;;5071570;28;20134;-67
2021/10/09 01:45:53;;;;;;;29.85;15.77;;;7.60;99.90;;;;;;5084132;28;20394;-67
2021/10/09 01:48:32;;;;;;;24.38;16.27;;;7.50;99.90;;;;;;5039698;28;20090;-67
2021/10/09 01:51:01;;;;;;;25.92;15.80;;;7.50;99.90;;;;;;5073256;28;20043;-67
2021/10/09 01:53:29;;;;;;;25.65;15.35;;;7.50;99.90;;;;;;5059085;28;20044;-67
2021/10/09 01:55:58;;;;;;;24.98;15.13;;;7.50;99.90;;;;;;5082266;28;20537;-67
2021/10/09 01:58:26;;;;;;;24.38;15.05;;;7.40;99.90;;;;;;5089183;28;20043;-67
2021/10/09 02:00:55;;;;;;;28.90;16.88;;;7.40;99.90;;;;;;5088110;28;20032;-67
2021/10/09 02:03:22;;;;;;;25.83;14.80;;;7.40;99.90;;;;;;5086534;28;20037;-67
2021/10/09 02:05:50;;;;;;;25.77;14.48;;;7.40;99.90;;;;;;5086931;28;20073;-67
2021/10/09 02:08:18;;;;;;;29.00;14.98;;;7.40;99.90;;;;;;5073225;28;20044;-67
2021/10/09 02:13:22;;;;;;;26.23;15.35;;;7.40;99.90;;;;;;5085841;28;20093;-67
2021/10/09 02:15:57;;;;;;;27.73;16.35;;;7.30;99.90;;;;;;5071233;28;20036;-67
2021/10/09 02:18:34;;;;;;;31.05;15.93;;;7.40;99.90;;;;;;5055297;28;20037;-67
2021/10/09 02:26:34;;;;;;;27.60;15.88;;;7.40;99.90;;;;;;5063990;28;20041;-66
2021/10/09 02:29:01;;;;;;;27.05;15.45;;;7.40;99.90;;;;;;5069556;28;20414;-66
2021/10/09 02:31:29;;;;;;;30.48;16.58;;;7.40;99.90;;;;;;5070321;28;20495;-66
2021/10/09 02:33:57;;;;;;;25.98;15.82;;;7.40;99.90;;;;;;5069930;28;20443;-66
2021/10/09 02:36:24;;;;;;;23.58;15.13;;;7.40;99.90;;;;;;5063103;28;20098;-66
2021/10/09 02:38:52;;;;;;;27.88;15.88;;;7.30;99.90;;;;;;5074984;28;20037;-66
2021/10/09 02:41:19;;;;;;;27.10;14.82;;;7.30;99.90;;;;;;5074490;28;20044;-66
2021/10/09 02:43:47;;;;;;;27.20;16.05;;;7.30;99.90;;;;;;5074294;28;20059;-66
2021/10/09 02:46:15;;;;;;;28.45;15.50;;;7.30;99.90;;;;;;5075895;28;20041;-66
2021/10/09 02:48:42;;;;;;;25.23;16.08;;;7.30;99.90;;;;;;5072845;28;20040;-66
2021/10/09 02:51:10;;;;;;;29.33;15.57;;;7.30;99.90;;;;;;5068428;28;20110;-66
2021/10/09 02:53:37;;;;;;;28.08;15.38;;;7.30;99.90;;;;;;5069323;28;20049;-66
2021/10/09 02:56:05;;;;;;;29.90;16.27;;;7.30;99.90;;;;;;5069843;28;20188;-66
2021/10/09 02:58:35;;;;;;;28.00;16.25;;;7.30;99.90;;;;;;5076426;28;20048;-66
2021/10/09 03:01:02;;;;;;;32.75;16.55;;;7.40;99.90;;;;;;5062752;28;20060;-66
2021/10/09 03:03:29;;;;;;;27.55;15.75;;;7.30;99.90;;;;;;5081880;28;20093;-66
2021/10/09 03:05:57;;;;;;;32.35;16.90;;;7.30;99.90;;;;;;5081112;28;20058;-66
2021/10/09 03:08:24;;;;;;;29.92;16.13;;;7.30;99.90;;;;;;5084907;28;20047;-66
2021/10/09 03:10:52;;;;;;;29.70;16.50;;;7.30;99.90;;;;;;5078362;28;20136;-66
2021/10/09 03:13:19;;;;;;;27.20;16.00;;;7.30;99.90;;;;;;5044858;28;20040;-66
2021/10/09 03:15:48;;;;;;;26.15;15.82;;;7.30;99.90;;;;;;5065348;28;20078;-66
2021/10/09 03:18:16;;;;;;;31.15;16.65;;;7.30;99.90;;;;;;5077494;28;20103;-66
2021/10/09 03:20:44;;;;;;;25.52;16.30;;;7.20;99.90;;;;;;5084314;28;20118;-66
2021/10/09 03:23:13;;;;;;;27.73;16.10;;;7.20;99.90;;;;;;5079699;28;20059;-66
2021/10/09 03:25:40;;;;;;;26.65;16.48;;;7.20;99.90;;;;;;5072305;28;20071;-66
2021/10/09 03:28:10;;;;;;;31.77;17.17;;;7.20;99.90;;;;;;5070147;28;20047;-66
2021/10/09 03:30:38;;;;;;;32.00;17.67;;;7.20;99.90;;;;;;5056568;28;20066;-66
2021/10/09 03:33:05;;;;;;;33.10;18.45;;;7.20;99.90;;;;;;5076965;28;20032;-66
2021/10/09 03:35:33;;;;;;;29.00;16.88;;;7.20;99.90;;;;;;5052310;28;20124;-66
2021/10/09 03:38:02;;;;;;;32.95;18.30;;;7.20;99.90;;;;;;5069867;28;20102;-66
2021/10/09 03:40:31;;;;;;;34.17;17.77;;;7.20;99.90;;;;;;5070251;28;20125;-67
2021/10/09 03:43:08;;;;;;;37.70;16.50;;;7.20;99.90;;;;;;5074380;28;20529;-67
2021/10/09 03:45:45;;;;;;;29.33;17.55;;;7.20;99.90;;;;;;5077673;28;20703;-66
2021/10/09 03:48:31;;;;;;;29.95;18.20;;;7.20;99.90;;;;;;5056082;28;20060;-67
2021/10/09 03:53:46;;;;;;;32.58;19.40;;;7.20;99.90;;;;;;5060604;28;20124;-66
2021/10/09 03:56:14;;;;;;;31.48;18.63;;;7.20;99.90;;;;;;5049672;28;20572;-67
2021/10/09 03:58:46;;;;;;;31.58;18.23;;;7.20;99.90;;;;;;5074680;28;20413;-67
2021/10/09 04:01:15;;;;;;;32.08;18.67;;;7.20;99.90;;;;;;5062021;28;20118;-67
2021/10/09 04:03:43;;;;;;;31.50;18.20;;;7.20;99.90;;;;;;5071485;28;20151;-67
2021/10/09 04:06:11;;;;;;;30.27;18.85;;;7.20;99.90;;;;;;5074976;28;20044;-67
2021/10/09 04:08:38;;;;;;;34.13;17.92;;;7.10;99.90;;;;;;5082539;28;20040;-67
2021/10/09 04:11:05;;;;;;;34.35;18.33;;;7.10;99.90;;;;;;5056629;28;20121;-67
2021/10/09 04:13:33;;;;;;;31.98;18.85;;;7.10;99.90;;;;;;5082634;28;20375;-66
2021/10/09 04:16:02;;;;;;;31.40;18.73;;;7.10;99.90;;;;;;5084873;28;20044;-66
2021/10/09 04:18:29;;;;;;;32.33;19.10;;;7.10;99.90;;;;;;5081389;28;20033;-66
2021/10/09 04:20:57;;;;;;;32.85;19.23;;;7.00;99.90;;;;;;5086077;28;20410;-66
2021/10/09 04:23:24;;;;;;;32.85;18.10;;;6.90;99.90;;;;;;5067822;28;20057;-66
2021/10/09 04:25:52;;;;;;;31.27;18.60;;;6.90;99.90;;;;;;5085473;28;20472;-66
2021/10/09 04:28:21;;;;;;;33.72;18.30;;;6.90;99.90;;;;;;5068774;28;20041;-66
2021/10/09 04:30:49;;;;;;;32.33;19.45;;;6.90;99.90;;;;;;5039988;28;20088;-66
2021/10/09 04:33:18;;;;;;;28.33;17.95;;;6.80;99.90;;;;;;5073129;28;20040;-66
2021/10/09 04:35:46;;;;;;;35.95;20.13;;;6.80;99.90;;;;;;5080462;28;20490;-66
2021/10/09 04:38:13;;;;;;;35.58;19.55;;;6.80;99.90;;;;;;5060922;28;20044;-66
2021/10/09 04:40:43;;;;;;;36.10;20.17;;;6.80;99.90;;;;;;5079286;28;20039;-66
2021/10/09 04:43:11;;;;;;;41.83;21.10;;;6.80;99.90;;;;;;5077900;28;20508;-66
2021/10/09 04:45:38;;;;;;;36.08;21.83;;;6.80;99.90;;;;;;5079124;28;20040;-67
2021/10/09 04:48:07;;;;;;;34.92;20.30;;;6.80;99.90;;;;;;5080486;28;20051;-66
2021/10/09 04:50:36;;;;;;;37.40;20.23;;;6.80;99.90;;;;;;5079738;28;20044;-66
2021/10/09 04:53:06;;;;;;;34.65;20.17;;;6.80;99.90;;;;;;5072879;28;20036;-66
2021/10/09 04:55:34;;;;;;;33.40;19.60;;;6.80;99.90;;;;;;5078081;28;20063;-66
2021/10/09 04:58:02;;;;;;;39.40;22.65;;;6.80;99.90;;;;;;5076185;28;20419;-66
2021/10/09 05:00:30;;;;;;;40.22;24.15;;;6.80;99.90;;;;;;5081471;28;20206;-66
2021/10/09 05:02:58;;;;;;;37.80;23.60;;;6.80;99.90;;;;;;5077289;28;20044;-66
2021/10/09 05:05:28;;;;;;;37.10;21.35;;;6.80;99.90;;;;;;5081641;28;20127;-66
2021/10/09 05:07:57;;;;;;;35.88;20.60;;;6.80;99.90;;;;;;5078748;28;20040;-65
2021/10/09 05:10:28;;;;;;;42.65;23.73;;;6.70;99.90;;;;;;5078254;28;20039;-66
2021/10/09 05:13:06;;;;;;;40.40;23.92;;;6.70;99.90;;;;;;5074349;28;20032;-66
2021/10/09 05:15:38;;;;;;;42.30;24.10;;;6.60;99.90;;;;;;5064514;28;20075;-66
2021/10/09 05:18:07;;;;;;;44.72;22.95;;;6.60;99.90;;;;;;5077349;28;20040;-66
2021/10/09 05:20:35;;;;;;;41.55;23.15;;;6.60;99.90;;;;;;5081460;28;20123;-66
2021/10/09 05:23:03;;;;;;;39.38;21.77;;;6.50;99.90;;;;;;5080757;28;20067;-67
2021/10/09 05:25:36;;;;;;;42.65;22.33;;;6.50;99.90;;;;;;5059557;28;20034;-66
2021/10/09 05:28:12;;;;;;;34.05;19.08;;;6.50;99.90;;;;;;5076551;28;20076;-66
2021/10/09 05:30:46;;;;;;;43.95;24.05;;;6.50;99.90;;;;;;5077533;28;20490;-66
2021/10/09 05:35:43;;;;;;;40.85;23.73;;;6.50;99.90;;;;;;5071714;28;20517;-66
2021/10/09 05:38:11;;;;;;;39.45;23.65;;;6.50;99.90;;;;;;5069176;28;20060;-67
2021/10/09 05:40:39;;;;;;;34.75;21.45;;;6.50;99.90;;;;;;5063576;28;20123;-66
2021/10/09 05:43:07;;;;;;;33.72;21.40;;;6.50;99.90;;;;;;5083435;28;20076;-66
2021/10/09 05:45:35;;;;;;;40.22;23.50;;;6.50;99.90;;;;;;5065917;28;20115;-66
2021/10/09 05:48:03;;;;;;;41.63;22.75;;;6.40;99.90;;;;;;5036820;28;20389;-66
2021/10/09 05:50:45;;;;;;;41.65;21.30;;;6.40;99.90;;;;;;5054760;28;20502;-66
2021/10/09 05:53:29;;;;;;;32.03;20.38;;;6.40;99.90;;;;;;5069314;28;20032;-66
2021/10/09 05:56:09;;;;;;;40.92;25.08;;;6.40;99.90;;;;;;5071368;28;20090;-66
2021/10/09 06:43:29;;;;;;;39.13;21.15;;;7.20;99.90;;;;;;5053499;28;20054;-66
2021/10/09 06:59:37;;;;;;;34.10;20.60;;;7.60;99.90;;;;;;5066152;28;20064;-67
2021/10/09 07:02:04;;;;;;;33.30;21.13;;;7.60;99.90;;;;;;5059082;28;20040;-67
2021/10/09 07:04:33;;;;;;;36.05;20.90;;;7.70;99.90;;;;;;5065251;28;20126;-66
2021/10/09 07:07:04;;;;;;;39.75;21.48;;;7.80;99.90;;;;;;5084043;28;20063;-67
2021/10/09 07:09:50;;;;;;;32.58;20.67;;;7.90;99.90;;;;;;5083511;28;20054;-67
2021/10/09 07:12:20;;;;;;;42.70;21.95;;;8.00;99.90;;;;;;5075135;28;20044;-67
2021/10/09 07:14:48;;;;;;;40.88;21.92;;;8.10;99.90;;;;;;5076902;28;20068;-67
2021/10/09 07:17:15;;;;;;;40.25;23.20;;;8.20;99.90;;;;;;5082480;28;20127;-67
2021/10/09 07:19:43;;;;;;;37.88;23.33;;;8.30;99.90;;;;;;5072804;28;20110;-67
2021/10/09 07:22:10;;;;;;;37.65;21.38;;;8.40;99.90;;;;;;5066475;28;20688;-66
2021/10/09 07:24:58;;;;;;;37.63;20.85;;;8.50;99.90;;;;;;5080617;28;20086;-67
2021/10/09 07:27:26;;;;;;;40.45;20.95;;;8.60;99.90;;;;;;5075480;28;20087;-67
2021/10/09 07:29:54;;;;;;;35.33;19.23;;;8.70;99.90;;;;;;5083650;28;20051;-65
2021/10/09 07:32:21;;;;;;;38.45;20.05;;;8.80;99.90;;;;;;5071119;28;20490;-68
2021/10/09 07:34:48;;;;;;;36.00;20.10;;;8.90;99.90;;;;;;5083055;28;20514;-68
2021/10/09 07:37:15;;;;;;;35.97;19.73;;;8.90;99.90;;;;;;5080878;28;20059;-67
2021/10/09 07:39:43;;;;;;;42.83;21.02;;;9.00;99.90;;;;;;5084582;28;20050;-67
2021/10/09 07:42:10;;;;;;;30.88;17.33;;;9.10;99.90;;;;;;5076602;28;20084;-67
2021/10/09 07:44:38;;;;;;;31.60;19.05;;;9.10;99.90;;;;;;5064517;28;20044;-67
2021/10/09 07:47:06;;;;;;;37.28;20.58;;;9.20;99.90;;;;;;5081719;28;20116;-67
2021/10/09 07:49:34;;;;;;;35.35;17.75;;;9.20;99.90;;;;;;5074839;28;20063;-67
2021/10/09 07:52:01;;;;;;;34.55;18.42;;;9.30;99.90;;;;;;5071755;28;20065;-67
2021/10/09 07:54:29;;;;;;;27.90;16.27;;;9.40;99.90;;;;;;5069104;28;20048;-67
2021/10/09 07:56:56;;;;;;;32.58;17.42;;;9.40;99.90;;;;;;5073737;28;20032;-67
2021/10/09 07:59:23;;;;;;;33.60;17.70;;;9.60;99.90;;;;;;5046498;28;20048;-67
2021/10/09 08:01:51;;;;;;;32.25;17.20;;;9.60;99.90;;;;;;5075422;28;20131;-67
2021/10/09 08:04:19;;;;;;;35.42;17.65;;;9.70;99.90;;;;;;5071989;28;20419;-67
2021/10/09 08:06:46;;;;;;;26.95;16.88;;;9.80;99.90;;;;;;5076690;28;20060;-67
2021/10/09 08:09:13;;;;;;;31.10;17.08;;;9.80;99.90;;;;;;5078272;28;20541;-67
2021/10/09 08:11:41;;;;;;;45.50;25.23;;;9.90;99.90;;;;;;5086963;28;20037;-67
2021/10/09 08:14:08;;;;;;;35.38;16.92;;;10.00;99.90;;;;;;5084092;28;20055;-67
2021/10/09 08:16:35;;;;;;;33.25;17.23;;;10.10;99.90;;;;;;5079717;28;20059;-67
2021/10/09 08:19:03;;;;;;;26.85;15.30;;;10.20;99.90;;;;;;5086104;28;20044;-67
2021/10/09 08:21:34;;;;;;;30.23;16.40;;;10.30;99.90;;;;;;5083648;28;20397;-67
2021/10/09 08:24:13;;;;;;;27.05;16.08;;;10.40;99.90;;;;;;5071313;28;20143;-67
2021/10/09 08:40:21;;;;;;;28.25;14.73;;;11.10;99.90;;;;;;5076481;28;20056;-68
2021/10/09 08:42:48;;;;;;;30.00;14.63;;;11.20;99.90;;;;;;5073689;28;20132;-67
2021/10/09 08:45:15;;;;;;;26.23;14.25;;;11.30;99.90;;;;;;5074438;28;20124;-68
2021/10/09 08:47:44;;;;;;;24.60;14.00;;;11.40;99.90;;;;;;5080969;28;20417;-68
2021/10/09 08:50:19;;;;;;;25.67;14.52;;;11.50;99.90;;;;;;5077971;28;20119;-68
2021/10/09 08:52:57;;;;;;;26.02;14.85;;;11.60;99.90;;;;;;5067226;28;20036;-68
2021/10/09 08:55:27;;;;;;;24.13;13.75;;;11.80;99.90;;;;;;5070694;28;20444;-68
2021/10/09 08:58:01;;;;;;;26.00;13.73;;;11.90;99.90;;;;;;5071519;28;20072;-68
2021/10/09 09:01:06;;;;;;;23.05;13.43;;;12.00;99.90;;;;;;5057002;28;20087;-68
2021/10/09 09:04:05;;;;;;;23.23;13.43;;;12.10;99.90;;;;;;5078474;28;20131;-68
2021/10/09 09:37:29;;;;;;;23.17;12.80;;;13.30;99.90;;;;;;5066916;28;20127;-67
2021/10/09 09:39:51;;;;;;;26.73;13.27;;;13.40;99.90;;;;;;5075694;28;20043;-67
2021/10/09 09:42:24;;;;;;;25.48;14.05;;;13.60;99.90;;;;;;5078161;28;20041;-67
2021/10/09 09:44:59;;;;;;;22.70;12.98;;;13.70;99.90;;;;;;5080557;28;20064;-66
2021/10/09 09:47:40;;;;;;;19.65;12.70;;;13.80;99.90;;;;;;5075400;28;20109;-67
2021/10/09 09:50:11;;;;;;;22.13;13.15;;;13.80;99.90;;;;;;5067310;28;20059;-68
2021/10/09 09:52:40;;;;;;;23.25;13.25;;;13.90;99.90;;;;;;5076342;28;20044;-68
2021/10/09 09:55:10;;;;;;;22.92;13.02;;;14.10;99.90;;;;;;5071876;28;20438;-68
2021/10/09 09:57:39;;;;;;;24.95;13.55;;;14.10;99.90;;;;;;5072010;28;20436;-67
2021/10/09 10:00:07;;;;;;;18.90;12.32;;;14.20;99.90;;;;;;5068268;28;20111;-68
2021/10/09 10:02:52;;;;;;;20.10;12.63;;;14.30;99.90;;;;;;5075599;28;20044;-68
2021/10/09 10:05:24;;;;;;;24.83;12.90;;;14.40;99.90;;;;;;5057330;28;20076;-68
2021/10/09 10:07:52;;;;;;;21.50;12.23;;;14.50;99.90;;;;;;5060832;28;20391;-68
2021/10/09 10:10:20;;;;;;;23.75;13.00;;;14.60;99.90;;;;;;5083890;28;20048;-67
2021/10/09 10:12:50;;;;;;;23.02;12.75;;;14.80;99.90;;;;;;5080154;28;20043;-68
2021/10/09 10:15:19;;;;;;;19.65;12.50;;;15.00;99.90;;;;;;5083971;28;20048;-67
2021/10/09 10:17:47;;;;;;;19.38;11.93;;;15.20;99.90;;;;;;5079747;28;20089;-67
2021/10/09 10:20:16;;;;;;;21.52;12.25;;;15.40;99.90;;;;;;5085315;28;20044;-67
2021/10/09 10:22:43;;;;;;;21.98;12.57;;;15.60;99.90;;;;;;5088969;28;20490;-67
2021/10/09 10:25:28;;;;;;;22.45;12.65;;;15.70;99.90;;;;;;5078218;28;20044;-67
2021/10/09 10:28:17;;;;;;;22.80;11.98;;;15.90;99.90;;;;;;5064238;28;20044;-67
2021/10/09 10:30:47;;;;;;;22.23;11.18;;;16.20;99.90;;;;;;5076166;28;20044;-67
2021/10/09 10:33:18;;;;;;;22.15;11.60;;;16.20;99.90;;;;;;5069291;28;20039;-67
2021/10/09 10:35:47;;;;;;;17.92;11.50;;;16.50;99.90;;;;;;5085379;28;20036;-67
2021/10/09 10:38:21;;;;;;;18.80;11.52;;;16.60;99.90;;;;;;5085307;28;20083;-67
2021/10/09 10:40:50;;;;;;;19.83;11.07;;;16.90;99.90;;;;;;5085700;28;20040;-67
2021/10/09 10:43:53;;;;;;;25.30;12.55;;;17.10;99.90;;;;;;5085407;28;20040;-68
2021/10/09 10:54:34;;;;;;;24.05;11.82;;;18.00;99.90;;;;;;5069237;28;20049;-67
2021/10/09 10:57:02;;;;;;;22.52;12.10;;;17.90;99.90;;;;;;5072278;28;20045;-67
2021/10/09 10:59:32;;;;;;;20.90;11.35;;;18.00;99.90;;;;;;5062088;28;20049;-67
2021/10/09 11:02:09;;;;;;;25.52;12.02;;;18.20;99.90;;;;;;5068701;28;20048;-67
2021/10/09 11:04:40;;;;;;;19.17;10.70;;;18.20;99.90;;;;;;5079316;28;20044;-67
2021/10/09 11:07:08;;;;;;;20.13;11.00;;;18.20;99.90;;;;;;5082599;28;20048;-67
2021/10/09 11:09:38;;;;;;;22.60;11.57;;;18.40;99.90;;;;;;5078144;28;20058;-67
2021/10/09 11:12:19;;;;;;;17.77;11.35;;;18.50;99.90;;;;;;5063433;28;20032;-67
2021/10/09 11:14:46;;;;;;;21.45;11.80;;;18.50;99.90;;;;;;5065832;28;20421;-67
2021/10/09 11:17:13;;;;;;;18.33;11.27;;;18.60;99.90;;;;;;5068674;28;20044;-67
2021/10/09 11:19:49;;;;;;;24.98;10.80;;;18.70;99.90;;;;;;5073965;28;20422;-67
2021/10/09 11:22:19;;;;;;;16.92;10.23;;;18.90;99.90;;;;;;5072083;28;20043;-67
2021/10/09 11:24:49;;;;;;;18.75;10.38;;;19.30;99.90;;;;;;5070040;28;20494;-67
2021/10/09 11:27:17;;;;;;;19.77;10.60;;;19.70;99.90;;;;;;5074520;28;20056;-67
2021/10/09 11:30:21;;;;;;;20.48;10.57;;;20.10;99.90;;;;;;5075478;28;20050;-67
2021/10/09 11:32:48;;;;;;;19.35;10.23;;;20.50;99.90;;;;;;5040872;28;20414;-68
2021/10/09 11:35:27;;;;;;;16.45;9.98;;;20.70;99.90;;;;;;5045863;28;20427;-67
2021/10/09 11:37:54;;;;;;;15.02;9.32;;;21.00;99.90;;;;;;5035600;28;20455;-67
2021/10/09 11:40:38;;;;;;;17.33;10.65;;;21.20;99.90;;;;;;5046798;28;20073;-68
2021/10/09 11:43:19;;;;;;;21.25;10.23;;;21.50;99.90;;;;;;5036249;28;20044;-67
2021/10/09 11:55:00;;;;;;;18.38;9.35;;;21.90;99.90;;;;;;5041089;28;20094;-67
2021/10/09 11:57:32;;;;;;;16.90;9.70;;;22.10;99.90;;;;;;5037156;28;20114;-68
2021/10/09 11:59:59;;;;;;;17.48;9.95;;;22.30;99.90;;;;;;5046205;28;20111;-67
2021/10/09 12:02:36;;;;;;;17.52;9.60;;;22.20;99.90;;;;;;5033173;28;20056;-67
2021/10/09 12:05:04;;;;;;;15.18;8.80;;;22.40;99.90;;;;;;5046087;28;20434;-67
2021/10/09 12:07:31;;;;;;;15.57;9.23;;;22.70;99.90;;;;;;5042046;28;20541;-67
2021/10/09 12:10:11;;;;;;;13.57;8.65;;;22.80;99.90;;;;;;5032257;28;20056;-67
2021/10/09 12:12:38;;;;;;;16.25;8.68;;;23.00;99.90;;;;;;5053776;28;20037;-68
2021/10/09 12:15:24;;;;;;;17.40;8.63;;;23.20;99.90;;;;;;5063790;28;20148;-68
2021/10/09 12:17:59;;;;;;;12.23;7.78;;;23.30;99.90;;;;;;5047789;28;20048;-67
2021/10/09 12:20:27;;;;;;;18.50;8.32;;;23.60;99.90;;;;;;5013055;28;20531;-67
2021/10/09 12:22:56;;;;;;;16.35;7.85;;;23.90;98.90;;;;;;5058022;28;20056;-67
2021/10/09 12:25:26;;;;;;;12.02;7.43;;;24.40;98.10;;;;;;5049580;28;20132;-67
2021/10/09 12:27:59;;;;;;;16.48;8.45;;;25.20;97.10;;;;;;5060597;28;20076;-67
2021/10/09 12:30:45;;;;;;;20.23;9.00;;;26.60;95.10;;;;;;5084275;28;20052;-68
2021/10/09 12:33:32;;;;;;;16.25;10.63;;;28.70;92.20;;;;;;5081631;28;20041;-66
2021/10/09 12:36:27;;;;;;;12.25;7.97;;;30.60;86.40;;;;;;5067238;28;20071;-67
2021/10/09 12:38:54;;;;;;;12.18;7.15;;;32.10;78.70;;;;;;5072368;28;20044;-67
2021/10/09 12:41:21;;;;;;;12.32;7.43;;;32.90;72.30;;;;;;5071308;28;20045;-67
2021/10/09 12:43:53;;;;;;;13.48;6.80;;;33.50;69.40;;;;;;5081563;28;20495;-68
2021/10/09 12:46:20;;;;;;;16.30;6.50;;;34.20;66.10;;;;;;5087475;28;20044;-68
2021/10/09 12:49:03;;;;;;;11.35;7.25;;;35.00;62.70;;;;;;5085452;28;20090;-68
2021/10/09 12:51:30;;;;;;;15.80;7.13;;;35.50;59.80;;;;;;5076030;28;20434;-68
2021/10/09 12:54:03;;;;;;;11.55;6.93;;;35.70;58.30;;;;;;5060189;28;20581;-68
2021/10/09 12:56:30;;;;;;;10.80;5.78;;;35.50;58.00;;;;;;5086319;28;20048;-67
2021/10/09 12:58:58;;;;;;;11.27;6.18;;;36.00;56.90;;;;;;5068588;28;20048;-68
2021/10/09 13:01:25;;;;;;;8.55;5.45;;;36.10;56.00;;;;;;5067645;28;20043;-68
2021/10/09 13:03:53;;;;;;;11.10;6.13;;;36.30;55.80;;;;;;5068772;28;20098;-68
2021/10/09 13:06:20;;;;;;;10.15;6.55;;;36.60;55.30;;;;;;5064827;28;20478;-68
2021/10/09 13:08:47;;;;;;;9.57;6.28;;;36.60;54.40;;;;;;5070300;28;20037;-67
2021/10/09 13:11:18;;;;;;;9.27;5.75;;;36.70;53.90;;;;;;5068459;28;20040;-68
2021/10/09 13:13:45;;;;;;;10.27;5.22;;;36.90;53.30;;;;;;5061565;28;20036;-69
2021/10/09 13:16:13;;;;;;;9.27;5.78;;;37.20;52.80;;;;;;5075144;28;20036;-68
2021/10/09 13:18:41;;;;;;;10.02;6.05;;;37.60;52.30;;;;;;5078992;28;20117;-68
2021/10/09 13:21:14;;;;;;;9.38;5.68;;;37.70;52.00;;;;;;5077554;28;20064;-68
2021/10/09 13:23:42;;;;;;;10.27;5.53;;;37.60;51.40;;;;;;5056804;28;20135;-67
2021/10/09 13:26:09;;;;;;;9.93;5.80;;;38.20;50.90;;;;;;5073120;28;20044;-67
2021/10/09 13:28:37;;;;;;;10.13;5.28;;;38.30;50.50;;;;;;5073833;28;20044;-68
2021/10/09 13:31:04;;;;;;;8.90;5.13;;;38.10;50.00;;;;;;5077923;28;20040;-67
2021/10/09 13:33:32;;;;;;;7.72;4.43;;;37.80;49.80;;;;;;5075391;28;20044;-67
2021/10/09 13:36:00;;;;;;;7.72;4.75;;;37.90;49.10;;;;;;5081245;28;20032;-67
2021/10/09 13:38:31;;;;;;;6.20;4.50;;;38.50;48.60;;;;;;5087158;28;20041;-67
2021/10/09 13:40:59;;;;;;;6.93;4.10;;;38.00;47.80;;;;;;5089915;28;20036;-67
2021/10/09 13:43:26;;;;;;;8.65;4.65;;;37.70;47.80;;;;;;5082882;28;20044;-67
2021/10/09 13:45:53;;;;;;;6.63;4.28;;;37.80;47.70;;;;;;5075289;28;20040;-67
2021/10/09 13:48:21;;;;;;;9.45;4.47;;;37.90;47.80;;;;;;5076652;28;20134;-67
2021/10/09 13:50:52;;;;;;;9.10;4.80;;;37.90;47.60;;;;;;5080005;28;20098;-67
2021/10/09 13:53:21;;;;;;;7.97;4.18;;;38.30;47.10;;;;;;5065056;28;20043;-67
2021/10/09 13:55:49;;;;;;;9.82;4.53;;;38.80;46.70;;;;;;5067490;28;20049;-68
2021/10/09 13:58:19;;;;;;;6.63;4.07;;;39.50;46.00;;;;;;5079911;28;20055;-68
2021/10/09 14:00:48;;;;;;;9.45;4.18;;;38.90;46.00;;;;;;5070235;28;20064;-67
2021/10/09 14:03:16;;;;;;;9.65;3.78;;;39.30;45.40;;;;;;5070558;28;20460;-68
2021/10/09 14:05:43;;;;;;;8.32;4.15;;;39.60;44.90;;;;;;5073584;28;20036;-68
2021/10/09 14:08:14;;;;;;;8.90;4.10;;;38.70;44.70;;;;;;5071332;28;20045;-68
2021/10/09 14:10:41;;;;;;;9.85;6.97;;;39.20;45.00;;;;;;5069394;28;20056;-67
2021/10/09 14:13:11;;;;;;;8.77;4.80;;;38.90;44.80;;;;;;5073387;28;20415;-67
2021/10/09 14:15:39;;;;;;;7.07;4.18;;;38.50;44.60;;;;;;5082384;28;20059;-67
2021/10/09 14:18:07;;;;;;;6.22;3.83;;;38.60;44.80;;;;;;5080697;28;20353;-67
2021/10/09 14:20:34;;;;;;;10.70;4.22;;;37.90;44.20;;;;;;5080564;28;20529;-68
2021/10/09 14:23:03;;;;;;;7.60;3.67;;;37.20;45.10;;;;;;5071539;28;20045;-67
2021/10/09 14:25:33;;;;;;;9.32;3.90;;;37.70;44.70;;;;;;5071425;28;20040;-68
2021/10/09 14:28:04;;;;;;;;;;;38.40;44.30;;;;;;5077712;28;20048;-68
2021/10/09 14:30:32;;;;;;;6.65;3.70;;;38.50;43.90;;;;;;5069058;28;20438;-67
2021/10/09 14:32:59;;;;;;;5.90;3.78;;;38.70;43.50;;;;;;5070188;28;20044;-67
2021/10/09 14:35:27;;;;;;;6.90;3.83;;;38.60;43.70;;;;;;5069857;28;20477;-67
2021/10/09 14:37:55;;;;;;;8.63;3.70;;;38.20;43.60;;;;;;5071607;28;20047;-68
2021/10/09 14:40:22;;;;;;;8.30;3.72;;;38.60;43.90;;;;;;5071120;28;20461;-69
2021/10/09 14:42:54;;;;;;;9.30;4.05;;;38.40;43.80;;;;;;5061737;28;20045;-67
2021/10/09 14:45:23;;;;;;;9.07;3.80;;;38.00;43.60;;;;;;5053422;28;20041;-67
2021/10/09 15:20:30;;;;;;;8.05;4.40;;;36.60;44.10;;;;;;5062336;28;20050;-68
2021/10/09 15:22:58;;;;;;;11.60;4.70;;;36.20;44.50;;;;;;5068071;28;20040;-67
2021/10/09 15:25:25;;;;;;;9.15;4.35;;;35.80;44.80;;;;;;5070028;28;20490;-67
2021/10/09 15:27:52;;;;;;;7.72;4.90;;;35.60;45.00;;;;;;5071050;28;20044;-67
2021/10/09 15:30:19;;;;;;;8.95;4.13;;;35.50;45.80;;;;;;5069953;28;20060;-67
2021/10/09 15:32:46;;;;;;;9.18;4.03;;;34.90;45.50;;;;;;5069938;28;20036;-67
2021/10/09 15:35:14;;;;;;;8.23;4.65;;;34.10;46.00;;;;;;5068853;28;20044;-67
2021/10/09 15:37:41;;;;;;;12.05;4.45;;;34.50;45.90;;;;;;5075083;28;20174;-67